createdAt,value
2023-03-29T00:02:59.270Z,2.42
2023-03-29T00:06:03.141Z,2.60
2023-03-29T00:09:06.331Z,2.20
2023-03-29T00:12:07.899Z,2.72
2023-03-29T00:15:09.679Z,2.13
2023-03-29T00:18:11.082Z,2.20
2023-03-29T00:21:12.506Z,2.35
2023-03-29T00:24:13.905Z,2.07
2023-03-29T00:27:16.403Z,2.00
2023-03-29T00:30:18.146Z,2.20
2023-03-29T00:33:20.552Z,2.30
2023-03-29T00:39:26.288Z,3.10
2023-03-29T00:42:27.795Z,2.03
2023-03-29T00:45:30.500Z,2.30
2023-03-29T00:48:32.899Z,2.17
2023-03-29T00:51:38.194Z,2.22
2023-03-29T00:54:44.876Z,2.15
2023-03-29T00:57:46.989Z,2.67
2023-03-29T01:00:57.834Z,2.80
2023-03-29T01:04:18.081Z,2.90
2023-03-29T01:07:23.280Z,2.53
2023-03-29T01:10:47.408Z,1.90
2023-03-29T01:14:10.106Z,2.20
2023-03-29T01:20:19.027Z,1.95
2023-03-29T01:23:51.049Z,2.10
2023-03-29T01:27:03.088Z,1.70
2023-03-29T01:30:12.694Z,1.83
2023-03-29T01:33:23.502Z,1.67
2023-03-29T01:36:31.156Z,1.75
2023-03-29T01:39:34.148Z,1.70
2023-03-29T01:42:35.665Z,1.75
2023-03-29T01:45:50.059Z,1.75
2023-03-29T01:48:56.726Z,1.60
2023-03-29T01:52:04.946Z,1.60
2023-03-29T01:55:21.603Z,1.90
2023-03-29T01:58:27.616Z,1.45
2023-03-29T02:01:38.215Z,1.60
2023-03-29T02:04:48.106Z,1.90
2023-03-29T02:07:51.400Z,1.70
2023-03-29T02:10:53.598Z,1.30
2023-03-29T02:13:56.938Z,1.40
2023-03-29T02:17:29.831Z,1.50
2023-03-29T02:20:39.304Z,2.00
2023-03-29T02:23:45.355Z,1.85
2023-03-29T02:26:48.594Z,1.98
2023-03-29T02:29:50.481Z,1.83
2023-03-29T02:33:03.865Z,1.95
2023-03-29T02:36:13.026Z,1.85
2023-03-29T02:39:16.232Z,1.90
2023-03-29T02:42:20.297Z,2.00
2023-03-29T02:45:23.421Z,1.90
2023-03-29T02:48:28.172Z,1.67
2023-03-29T02:51:33.978Z,1.80
2023-03-29T02:54:37.906Z,1.70
2023-03-29T02:57:40.851Z,1.75
2023-03-29T03:00:46.113Z,1.73
2023-03-29T03:03:48.022Z,1.65
2023-03-29T03:06:50.038Z,1.85
2023-03-29T03:09:51.889Z,1.67
2023-03-29T03:12:53.338Z,1.80
2023-03-29T03:15:55.092Z,1.73
2023-03-29T03:18:56.878Z,1.35
2023-03-29T03:21:59.588Z,1.70
2023-03-29T03:25:00.983Z,1.80
2023-03-29T03:28:02.615Z,1.80
2023-03-29T03:31:04.889Z,1.55
2023-03-29T03:34:26.188Z,1.65
2023-03-29T03:37:31.966Z,1.58
2023-03-29T03:40:33.453Z,1.75
2023-03-29T03:43:35.553Z,1.63
2023-03-29T03:46:37.273Z,1.67
2023-03-29T03:49:40.011Z,1.75
2023-03-29T03:52:41.675Z,1.40
2023-03-29T03:55:49.315Z,1.48
2023-03-29T03:58:56.929Z,1.52
2023-03-29T04:01:59.740Z,1.67
2023-03-29T04:05:03.338Z,1.58
2023-03-29T04:08:09.621Z,1.60
2023-03-29T04:11:29.578Z,1.70
2023-03-29T04:14:32.197Z,1.60
2023-03-29T04:17:41.655Z,1.90
2023-03-29T04:20:58.196Z,1.70
2023-03-29T04:24:01.119Z,2.00
2023-03-29T04:27:03.356Z,1.80
2023-03-29T04:30:05.626Z,1.80
2023-03-29T04:33:28.776Z,1.70
2023-03-29T04:36:34.533Z,1.80
2023-03-29T04:42:44.267Z,2.47
2023-03-29T04:45:45.782Z,3.40
2023-03-29T04:48:58.917Z,3.30
2023-03-29T04:52:24.417Z,3.20
2023-03-29T04:55:27.141Z,3.03
2023-03-29T04:58:36.238Z,3.38
2023-03-29T05:01:37.862Z,3.50
2023-03-29T05:04:39.408Z,2.67
2023-03-29T05:07:47.882Z,2.50
2023-03-29T05:10:54.386Z,2.58
2023-03-29T05:14:00.619Z,2.95
2023-03-29T05:17:06.324Z,3.00
2023-03-29T05:20:13.070Z,3.00
2023-03-29T05:23:17.475Z,3.17
2023-03-29T05:26:37.455Z,3.72
2023-03-29T05:29:39.297Z,3.65
2023-03-29T05:32:56.518Z,3.50
2023-03-29T05:36:02.225Z,4.00
2023-03-29T05:39:04.739Z,3.42
2023-03-29T05:42:07.106Z,2.83
2023-03-29T05:45:22.807Z,3.15
2023-03-29T05:48:25.693Z,3.53
2023-03-29T05:54:30.786Z,4.22
2023-03-29T05:57:36.441Z,4.13
2023-03-29T06:00:39.547Z,7.05
2023-03-29T06:03:58.728Z,6.15
2023-03-29T06:07:08.366Z,3.90
2023-03-29T06:10:10.667Z,3.47
2023-03-29T06:13:14.811Z,3.92
2023-03-29T06:16:16.447Z,3.78
2023-03-29T06:19:18.766Z,3.47
2023-03-29T06:22:21.138Z,3.67
2023-03-29T06:25:22.767Z,3.95
2023-03-29T06:28:25.840Z,4.15
2023-03-29T06:31:27.747Z,4.45
2023-03-29T06:34:31.017Z,4.78
2023-03-29T06:37:55.902Z,4.22
2023-03-29T06:41:17.838Z,3.80
2023-03-29T06:44:46.791Z,4.05
2023-03-29T06:47:54.424Z,3.67
2023-03-29T06:54:01.030Z,3.80
2023-03-29T06:57:05.650Z,3.80
2023-03-29T07:00:19.242Z,4.00
2023-03-29T07:03:50.224Z,3.95
2023-03-29T07:07:05.863Z,3.47
2023-03-29T07:10:09.368Z,3.43
2023-03-29T07:13:30.468Z,4.22
2023-03-29T07:16:37.085Z,3.33
2023-03-29T07:19:59.488Z,3.30
2023-03-29T07:23:15.427Z,3.30
2023-03-29T07:26:29.278Z,3.20
2023-03-29T07:29:32.710Z,2.97
2023-03-29T07:32:34.315Z,3.20
2023-03-29T07:35:47.847Z,3.40
2023-03-29T07:38:49.908Z,3.33
2023-03-29T07:41:58.008Z,3.67
2023-03-29T07:45:00.023Z,3.83
2023-03-29T07:48:08.385Z,4.50
2023-03-29T07:51:23.287Z,3.58
2023-03-29T07:54:35.656Z,3.80
2023-03-29T07:57:53.674Z,3.40
2023-03-29T08:04:19.640Z,3.10
2023-03-29T08:07:41.338Z,2.90
2023-03-29T08:10:52.947Z,3.20
2023-03-29T08:14:17.035Z,3.13
2023-03-29T08:17:41.770Z,2.80
2023-03-29T08:23:45.128Z,2.50
2023-03-29T08:26:53.864Z,3.13
2023-03-29T08:29:55.744Z,3.17
2023-03-29T08:32:58.023Z,3.25
2023-03-29T08:39:05.905Z,3.10
2023-03-29T08:42:38.395Z,2.78
2023-03-29T08:45:44.140Z,2.80
2023-03-29T08:48:52.637Z,2.50
2023-03-29T08:52:02.380Z,2.40
2023-03-29T08:55:13.419Z,2.70
2023-03-29T08:58:36.955Z,2.10
2023-03-29T09:01:39.048Z,2.13
2023-03-29T09:04:42.455Z,1.95
2023-03-29T09:08:09.210Z,1.95
2023-03-29T09:11:23.085Z,2.08
2023-03-29T09:14:36.274Z,2.20
2023-03-29T09:18:03.768Z,2.17
2023-03-29T09:21:16.925Z,2.03
2023-03-29T09:24:38.283Z,1.90
2023-03-29T09:28:18.337Z,2.60
2023-03-29T09:31:34.405Z,2.50
2023-03-29T09:34:43.373Z,2.38
2023-03-29T09:37:53.779Z,2.42
2023-03-29T09:41:04.514Z,2.05
2023-03-29T09:47:45.069Z,2.58
2023-03-29T09:50:51.256Z,2.30
2023-03-29T09:53:56.551Z,2.83
2023-03-29T09:57:18.457Z,3.70
2023-03-29T10:00:20.677Z,2.80
2023-03-29T10:03:25.825Z,2.17
2023-03-29T10:06:36.670Z,4.55
2023-03-29T10:09:38.231Z,2.00
2023-03-29T10:12:54.319Z,2.30
2023-03-29T10:16:07.968Z,2.53
2023-03-29T10:19:23.307Z,2.00
2023-03-29T10:22:27.679Z,2.28
2023-03-29T10:25:31.329Z,2.25
2023-03-29T10:28:34.884Z,2.10
2023-03-29T10:31:41.548Z,3.60
2023-03-29T10:34:45.664Z,1.80
2023-03-29T10:37:53.022Z,2.03
2023-03-29T10:41:02.714Z,2.30
2023-03-29T10:44:06.604Z,1.65
2023-03-29T10:47:20.185Z,2.03
2023-03-29T10:50:21.685Z,1.70
2023-03-29T10:53:28.053Z,2.50
2023-03-29T10:56:40.013Z,1.60
2023-03-29T11:00:00.488Z,1.90
2023-03-29T11:03:08.655Z,1.60
2023-03-29T11:06:19.807Z,1.30
2023-03-29T11:09:49.780Z,1.38
2023-03-29T11:13:13.257Z,1.60
2023-03-29T11:16:25.402Z,1.60
2023-03-29T11:20:14.573Z,1.35
2023-03-29T11:23:47.021Z,1.60
2023-03-29T11:27:07.097Z,1.73
2023-03-29T11:30:14.657Z,1.60
2023-03-29T11:33:30.136Z,1.60
2023-03-29T11:36:38.812Z,1.38
2023-03-29T11:40:05.594Z,1.38
2023-03-29T11:43:23.173Z,1.70
2023-03-29T11:46:39.398Z,1.60
2023-03-29T11:49:52.979Z,1.60
2023-03-29T11:53:12.594Z,1.40
2023-03-29T11:56:23.735Z,1.50
2023-03-29T11:59:32.756Z,3.22
2023-03-29T12:03:10.960Z,1.40
2023-03-29T12:06:24.920Z,1.60
2023-03-29T12:09:41.270Z,1.52
2023-03-29T12:12:55.176Z,1.40
2023-03-29T12:16:14.703Z,1.50
2023-03-29T12:19:23.098Z,1.42
2023-03-29T12:22:24.584Z,1.30
2023-03-29T12:25:34.516Z,1.45
2023-03-29T12:28:48.653Z,1.35
2023-03-29T12:31:59.613Z,1.30
2023-03-29T12:35:40.169Z,1.70
2023-03-29T12:39:17.066Z,1.70
2023-03-29T12:42:53.960Z,2.22
2023-03-29T12:46:19.329Z,1.55
2023-03-29T12:49:29.409Z,1.60
2023-03-29T12:52:35.833Z,1.60
2023-03-29T12:55:43.896Z,1.60
2023-03-29T12:58:45.353Z,1.50
2023-03-29T13:02:05.370Z,1.40
2023-03-29T13:05:31.632Z,1.60
2023-03-29T13:08:35.576Z,1.60
2023-03-29T13:11:41.296Z,2.63
2023-03-29T13:14:46.310Z,2.95
2023-03-29T13:18:10.949Z,2.25
2023-03-29T13:21:22.810Z,3.00
2023-03-29T13:24:30.158Z,2.15
2023-03-29T13:27:59.682Z,1.60
2023-03-29T13:31:13.032Z,1.77
2023-03-29T13:34:59.006Z,1.85
2023-03-29T13:38:19.555Z,1.90
2023-03-29T13:41:40.265Z,1.55
2023-03-29T13:44:45.981Z,1.45
2023-03-29T13:47:58.793Z,1.50
2023-03-29T13:51:17.753Z,1.75
2023-03-29T13:54:32.319Z,1.40
2023-03-29T13:57:40.741Z,3.63
2023-03-29T14:00:49.341Z,3.10
2023-03-29T14:03:52.598Z,1.98
2023-03-29T14:06:56.734Z,1.60
2023-03-29T14:09:59.101Z,1.90
2023-03-29T14:13:03.864Z,1.50
2023-03-29T14:16:11.596Z,1.40
2023-03-29T14:19:18.280Z,1.10
2023-03-29T14:22:21.307Z,1.48
2023-03-29T14:25:22.959Z,1.33
2023-03-29T14:28:27.776Z,1.42
2023-03-29T14:31:38.618Z,2.20
2023-03-29T14:34:40.500Z,1.42
2023-03-29T14:37:45.238Z,1.70
2023-03-29T14:40:46.710Z,1.60
2023-03-29T14:43:48.926Z,5.00
2023-03-29T14:46:50.760Z,1.80
2023-03-29T14:49:54.360Z,2.20
2023-03-29T14:52:57.896Z,2.00
2023-03-29T14:56:00.332Z,1.50
2023-03-29T14:59:04.506Z,1.25
2023-03-29T15:02:23.028Z,1.42
2023-03-29T15:05:33.274Z,1.50
2023-03-29T15:08:45.825Z,1.85
2023-03-29T15:11:58.330Z,1.20
2023-03-29T15:15:01.413Z,1.33
2023-03-29T15:18:10.467Z,1.35
2023-03-29T15:21:14.596Z,1.63
2023-03-29T15:24:21.174Z,1.60
2023-03-29T15:27:22.850Z,1.67
2023-03-29T15:30:39.561Z,1.50
2023-03-29T15:33:41.978Z,1.67
2023-03-29T15:36:45.551Z,1.75
2023-03-29T15:39:47.062Z,1.33
2023-03-29T15:42:49.155Z,1.42
2023-03-29T15:48:52.031Z,1.83
2023-03-29T15:51:54.177Z,2.03
2023-03-29T15:58:00.489Z,1.80
2023-03-29T16:01:19.188Z,1.90
2023-03-29T16:04:22.114Z,1.98
2023-03-29T16:07:23.626Z,2.20
2023-03-29T16:10:25.250Z,1.92
2023-03-29T16:13:26.742Z,1.90
2023-03-29T16:16:28.534Z,1.73
2023-03-29T16:19:31.063Z,1.90
2023-03-29T16:22:32.501Z,1.80
2023-03-29T16:25:34.259Z,2.00
2023-03-29T16:28:36.973Z,1.70
2023-03-29T16:31:39.177Z,1.70
2023-03-29T16:34:41.404Z,1.60
2023-03-29T16:37:42.946Z,1.80
2023-03-29T16:40:45.138Z,2.00
2023-03-29T16:43:46.837Z,2.15
2023-03-29T16:46:48.293Z,2.22
2023-03-29T16:49:49.722Z,2.22
2023-03-29T16:52:52.445Z,2.30
2023-03-29T16:55:54.399Z,2.92
2023-03-29T16:58:55.813Z,2.50
2023-03-29T17:01:57.270Z,2.30
2023-03-29T17:04:58.860Z,2.10
2023-03-29T17:08:00.416Z,2.38
2023-03-29T17:11:03.075Z,2.47
2023-03-29T17:14:04.625Z,2.60
2023-03-29T17:17:06.308Z,3.83
2023-03-29T17:20:10.326Z,3.80
2023-03-29T17:23:12.249Z,3.90
2023-03-29T17:26:14.077Z,3.38
2023-03-29T17:29:15.592Z,3.60
2023-03-29T17:32:17.095Z,2.72
2023-03-29T17:35:18.538Z,2.60
2023-03-29T17:38:20.048Z,2.63
2023-03-29T17:41:21.537Z,2.42
2023-03-29T17:44:23.128Z,2.50
2023-03-29T17:47:24.656Z,2.45
2023-03-29T17:50:26.268Z,2.60
2023-03-29T17:53:27.835Z,2.35
2023-03-29T17:56:29.424Z,2.53
2023-03-29T17:59:31.125Z,2.58
2023-03-29T18:02:32.697Z,2.90
2023-03-29T18:05:34.976Z,2.10
2023-03-29T18:08:36.388Z,2.30
2023-03-29T18:11:38.430Z,2.05
2023-03-29T18:14:39.923Z,2.40
2023-03-29T18:17:41.457Z,1.80
2023-03-29T18:20:45.292Z,2.30
2023-03-29T18:23:48.462Z,1.60
2023-03-29T18:26:49.866Z,1.70
2023-03-29T18:29:51.347Z,1.67
2023-03-29T18:32:53.123Z,2.15
2023-03-29T18:35:54.680Z,1.65
2023-03-29T18:39:02.321Z,1.73
2023-03-29T18:42:03.812Z,1.90
2023-03-29T18:45:05.723Z,1.58
2023-03-29T18:48:07.900Z,1.70
2023-03-29T18:51:10.948Z,1.90
2023-03-29T18:54:12.377Z,2.00
2023-03-29T18:57:13.903Z,1.90
2023-03-29T19:00:15.693Z,1.80
2023-03-29T19:03:17.568Z,2.58
2023-03-29T19:06:19.352Z,2.45
2023-03-29T19:09:20.963Z,3.60
2023-03-29T19:12:22.623Z,2.47
2023-03-29T19:15:24.299Z,3.53
2023-03-29T19:18:25.913Z,3.00
2023-03-29T19:21:28.850Z,2.22
2023-03-29T19:24:30.416Z,2.30
2023-03-29T19:27:33.398Z,3.28
2023-03-29T19:30:35.864Z,2.22
2023-03-29T19:33:37.363Z,2.60
2023-03-29T19:36:38.869Z,2.50
2023-03-29T19:39:41.393Z,2.00
2023-03-29T19:42:42.911Z,2.40
2023-03-29T19:45:45.969Z,1.75
2023-03-29T19:48:47.746Z,2.00
2023-03-29T19:51:49.178Z,1.80
2023-03-29T19:54:51.197Z,1.70
2023-03-29T19:57:52.633Z,2.35
2023-03-29T20:00:57.932Z,1.83
2023-03-29T20:03:59.606Z,1.67
2023-03-29T20:07:01.090Z,2.03
2023-03-29T20:10:03.002Z,1.83
2023-03-29T20:13:06.479Z,2.08
2023-03-29T20:16:10.896Z,1.88
2023-03-29T20:19:14.034Z,2.05
2023-03-29T20:22:15.622Z,1.52
2023-03-29T20:25:17.104Z,2.00
2023-03-29T20:28:19.643Z,2.00
2023-03-29T20:31:21.239Z,1.95
2023-03-29T20:34:22.705Z,1.90
2023-03-29T20:37:25.764Z,1.92
2023-03-29T20:40:28.721Z,2.03
2023-03-29T20:43:37.604Z,2.20
2023-03-29T20:46:54.027Z,2.17
2023-03-29T20:49:55.462Z,2.38
2023-03-29T20:52:57.159Z,2.30
2023-03-29T20:55:58.851Z,2.40
2023-03-29T20:59:00.901Z,3.95
2023-03-29T21:02:02.409Z,4.90
2023-03-29T21:05:04.061Z,5.38
2023-03-29T21:08:05.740Z,4.55
2023-03-29T21:11:08.074Z,4.40
2023-03-29T21:14:09.589Z,6.90
2023-03-29T21:17:11.021Z,5.28
2023-03-29T21:20:13.146Z,2.78
2023-03-29T21:26:15.981Z,2.28
2023-03-29T21:29:17.429Z,2.72
2023-03-29T21:32:19.004Z,2.20
2023-03-29T21:35:20.653Z,2.28
2023-03-29T21:38:22.101Z,2.60
2023-03-29T21:41:23.520Z,2.70
2023-03-29T21:44:26.139Z,2.30
2023-03-29T21:47:28.111Z,2.70
2023-03-29T21:50:31.985Z,2.78
2023-03-29T21:53:35.157Z,2.65
2023-03-29T21:56:36.960Z,2.47
2023-03-29T21:59:38.414Z,2.45
2023-03-29T22:02:40.416Z,2.92
2023-03-29T22:05:42.105Z,3.30
2023-03-29T22:08:43.582Z,2.70
2023-03-29T22:11:44.990Z,3.47
2023-03-29T22:14:46.537Z,2.83
2023-03-29T22:17:48.207Z,3.00
2023-03-29T22:20:49.684Z,2.67
2023-03-29T22:23:54.465Z,2.53
2023-03-29T22:26:56.020Z,2.28
2023-03-29T22:29:58.560Z,2.40
2023-03-29T22:33:00.021Z,2.28
2023-03-29T22:36:02.220Z,2.50
2023-03-29T22:39:04.327Z,2.92
2023-03-29T22:45:08.146Z,2.83
2023-03-29T22:51:11.424Z,2.63
2023-03-29T22:54:12.899Z,2.63
2023-03-29T22:57:14.382Z,2.80
2023-03-29T23:00:15.984Z,2.45
2023-03-29T23:03:17.758Z,3.17
2023-03-29T23:06:19.185Z,2.65
2023-03-29T23:09:20.969Z,2.65
2023-03-29T23:12:24.046Z,2.60
2023-03-29T23:15:27.156Z,3.00
2023-03-29T23:18:32.166Z,2.78
2023-03-29T23:21:33.572Z,2.70
2023-03-29T23:24:34.994Z,3.13
2023-03-29T23:27:36.398Z,3.10
2023-03-29T23:30:38.575Z,2.70
2023-03-29T23:33:42.426Z,3.80
2023-03-29T23:36:43.892Z,3.05
2023-03-29T23:39:45.743Z,2.53
2023-03-29T23:42:48.280Z,3.05
2023-03-29T23:45:55.674Z,2.65
2023-03-29T23:48:57.080Z,2.47
2023-03-29T23:52:00.162Z,3.20
2023-03-29T23:55:01.719Z,2.60
2023-03-29T23:58:03.174Z,2.63
